createdAt,value
2019-04-20T00:01:33.624Z,99761.86
2019-04-20T00:04:03.533Z,99765.69
2019-04-20T00:06:41.695Z,99759.51
2019-04-20T00:09:17.154Z,99763.58
2019-04-20T00:11:58.972Z,99756.58
2019-04-20T00:14:24.608Z,99753.00
2019-04-20T00:16:52.925Z,99760.04
2019-04-20T00:19:33.597Z,99758.33
2019-04-20T00:22:08.040Z,99755.23
2019-04-20T00:25:12.048Z,99750.60
2019-04-20T00:28:16.300Z,99753.36
2019-04-20T00:30:54.330Z,99744.45
2019-04-20T00:33:21.687Z,99736.77
2019-04-20T00:35:42.123Z,99739.28
2019-04-20T00:38:15.981Z,99734.92
2019-04-20T00:40:57.614Z,99731.01
2019-04-20T00:43:28.119Z,99731.73
2019-04-20T00:46:01.981Z,99723.47
2019-04-20T00:48:42.890Z,99729.20
2019-04-20T00:51:24.106Z,99729.34
2019-04-20T00:53:43.318Z,99730.97
2019-04-20T00:56:13.980Z,99720.39
2019-04-20T00:58:58.235Z,99717.02
2019-04-20T01:01:46.248Z,99712.97
2019-04-20T01:04:15.076Z,99715.64
2019-04-20T01:07:01.694Z,99710.55
2019-04-20T01:09:45.454Z,99706.20
2019-04-20T01:12:24.238Z,99710.52
2019-04-20T01:14:57.349Z,99708.88
2019-04-20T01:17:26.027Z,99712.58
2019-04-20T01:19:58.055Z,99711.20
2019-04-20T01:22:40.161Z,99709.13
2019-04-20T01:25:09.737Z,99710.51
2019-04-20T01:27:58.850Z,99704.34
2019-04-20T01:30:23.553Z,99700.69
2019-04-20T01:33:02.527Z,99699.77
2019-04-20T01:35:40.826Z,99702.70
2019-04-20T01:38:12.552Z,99693.67
2019-04-20T01:40:29.583Z,99699.95
2019-04-20T01:43:01.635Z,99693.98
2019-04-20T01:45:37.888Z,99700.70
2019-04-20T01:48:08.244Z,99698.03
2019-04-20T01:50:52.112Z,99694.00
2019-04-20T01:53:29.320Z,99697.75
2019-04-20T01:56:07.273Z,99690.92
2019-04-20T01:59:02.694Z,99698.09
2019-04-20T02:01:36.183Z,99696.78
2019-04-20T02:04:22.452Z,99692.69
2019-04-20T02:06:53.216Z,99695.73
2019-04-20T02:09:25.617Z,99696.14
2019-04-20T02:11:55.691Z,99694.36
2019-04-20T02:14:35.548Z,99695.66
2019-04-20T02:17:13.019Z,99692.55
2019-04-20T02:19:58.536Z,99692.17
2019-04-20T02:22:23.127Z,99692.11
2019-04-20T02:24:42.713Z,99689.76
2019-04-20T02:27:14.810Z,99692.70
2019-04-20T02:30:13.402Z,99698.93
2019-04-20T02:32:55.578Z,99695.55
2019-04-20T02:35:53.962Z,99698.89
2019-04-20T02:38:45.020Z,99696.37
2019-04-20T02:41:21.459Z,99696.20
2019-04-20T02:43:46.842Z,99696.95
2019-04-20T02:46:06.761Z,99695.38
2019-04-20T02:48:40.068Z,99702.02
2019-04-20T02:51:16.009Z,99696.26
2019-04-20T02:54:09.524Z,99688.14
2019-04-20T02:56:32.405Z,99692.86
2019-04-20T02:59:14.704Z,99693.88
2019-04-20T03:01:43.452Z,99696.23
2019-04-20T03:04:00.768Z,99690.42
2019-04-20T03:06:42.561Z,99701.42
2019-04-20T03:09:29.694Z,99698.31
2019-04-20T03:14:26.617Z,99697.36
2019-04-20T03:17:10.417Z,99707.66
2019-04-20T03:19:36.212Z,99713.30
2019-04-20T03:22:16.075Z,99712.02
2019-04-20T03:24:49.592Z,99714.07
2019-04-20T03:27:25.058Z,99719.03
2019-04-20T03:30:22.820Z,99715.69
2019-04-20T03:38:02.826Z,99716.44
2019-04-20T03:40:27.508Z,99724.16
2019-04-20T03:42:44.697Z,99717.95
2019-04-20T03:45:20.998Z,99713.72
2019-04-20T03:48:03.084Z,99723.20
2019-04-20T03:50:46.303Z,99720.17
2019-04-20T03:53:23.009Z,99718.37
2019-04-20T03:56:21.556Z,99714.07
2019-04-20T03:59:01.280Z,99715.15
2019-04-20T04:04:38.882Z,99713.06
2019-04-20T04:06:59.768Z,99711.51
2019-04-20T04:09:37.022Z,99711.51
2019-04-20T04:12:56.838Z,99710.21
2019-04-20T04:15:29.622Z,99709.39
2019-04-20T04:18:08.876Z,99711.41
2019-04-20T04:20:43.620Z,99718.75
2019-04-20T04:23:22.018Z,99716.19
2019-04-20T04:26:00.723Z,99721.44
2019-04-20T04:28:32.596Z,99721.14
2019-04-20T04:36:13.538Z,99724.82
2019-04-20T04:38:53.535Z,99722.38
2019-04-20T04:41:27.038Z,99729.98
2019-04-20T04:43:58.897Z,99721.42
2019-04-20T04:46:14.364Z,99728.72
2019-04-20T04:48:50.792Z,99729.69
2019-04-20T04:51:24.718Z,99729.22
2019-04-20T04:54:01.766Z,99727.90
2019-04-20T04:56:29.963Z,99738.48
2019-04-20T04:59:02.348Z,99736.78
2019-04-20T05:01:37.211Z,99734.90
2019-04-20T05:04:25.143Z,99740.09
2019-04-20T05:06:58.205Z,99735.97
2019-04-20T05:09:17.041Z,99737.77
2019-04-20T05:11:56.135Z,99744.80
2019-04-20T05:14:32.520Z,99743.57
2019-04-20T05:17:11.669Z,99738.31
2019-04-20T05:19:47.817Z,99742.00
2019-04-20T05:22:27.562Z,99744.72
2019-04-20T05:25:12.852Z,99744.44
2019-04-20T05:27:51.057Z,99740.88
2019-04-20T05:30:09.829Z,99748.02
2019-04-20T05:32:54.386Z,99747.36
2019-04-20T05:35:38.098Z,99748.96
2019-04-20T05:38:22.960Z,99749.13
2019-04-20T05:40:51.453Z,99749.06
2019-04-20T05:43:37.198Z,99749.91
2019-04-20T05:46:18.390Z,99752.96
2019-04-20T05:48:53.299Z,99755.34
2019-04-20T05:51:29.770Z,99751.48
2019-04-20T05:53:58.787Z,99754.03
2019-04-20T05:56:35.848Z,99753.45
2019-04-20T05:59:04.496Z,99758.80
2019-04-20T06:01:45.249Z,99756.58
2019-04-20T06:04:28.385Z,99760.63
2019-04-20T06:06:56.009Z,99759.02
2019-04-20T06:09:33.878Z,99757.80
2019-04-20T06:12:15.995Z,99756.50
2019-04-20T06:14:52.268Z,99759.10
2019-04-20T06:17:52.856Z,99767.09
2019-04-20T06:20:31.288Z,99768.17
2019-04-20T06:23:25.707Z,99766.98
2019-04-20T06:26:13.447Z,99771.53
2019-04-20T06:28:43.886Z,99765.14
2019-04-20T06:31:42.652Z,99766.84
2019-04-20T06:34:33.373Z,99768.64
2019-04-20T06:37:02.095Z,99771.69
2019-04-20T06:39:54.673Z,99772.61
2019-04-20T06:42:37.055Z,99773.56
2019-04-20T06:45:20.187Z,99771.80
2019-04-20T06:47:57.566Z,99775.73
2019-04-20T06:50:30.403Z,99774.81
2019-04-20T06:53:41.630Z,99779.11
2019-04-20T06:56:29.800Z,99773.56
2019-04-20T06:59:25.862Z,99775.26
2019-04-20T07:02:04.023Z,99779.32
2019-04-20T07:07:18.446Z,99773.84
2019-04-20T07:10:06.720Z,99772.73
2019-04-20T07:12:27.320Z,99776.31
2019-04-20T07:15:06.514Z,99774.56
2019-04-20T07:20:51.596Z,99782.41
2019-04-20T07:23:26.516Z,99766.45
2019-04-20T07:26:12.748Z,99769.44
2019-04-20T07:28:48.548Z,99773.84
2019-04-20T07:31:18.200Z,99772.36
2019-04-20T07:34:04.675Z,99767.84
2019-04-20T07:36:50.307Z,99767.08
2019-04-20T07:39:27.947Z,99768.02
2019-04-20T07:42:12.114Z,99773.25
2019-04-20T07:44:58.064Z,99777.06
2019-04-20T07:50:21.272Z,99771.06
2019-04-20T07:53:06.698Z,99772.31
2019-04-20T07:55:55.164Z,99774.53
2019-04-20T07:58:27.342Z,99767.53
2019-04-20T08:01:40.189Z,99764.77
2019-04-20T08:04:13.213Z,99766.05
2019-04-20T08:06:41.902Z,99762.72
2019-04-20T08:09:25.979Z,99756.51
2019-04-20T08:12:28.244Z,99754.34
2019-04-20T08:15:04.922Z,99748.64
2019-04-20T08:17:44.302Z,99753.62
2019-04-20T08:20:16.155Z,99750.45
2019-04-20T08:22:53.077Z,99746.17
2019-04-20T08:25:16.282Z,99745.31
2019-04-20T08:27:57.101Z,99739.98
2019-04-20T08:31:17.848Z,99737.12
2019-04-20T08:34:07.526Z,99741.13
2019-04-20T08:36:33.548Z,99737.70
2019-04-20T08:41:50.397Z,99735.84
2019-04-20T08:47:21.781Z,99733.05
2019-04-20T08:49:41.110Z,99730.09
2019-04-20T08:52:34.387Z,99728.02
2019-04-20T08:54:41.465Z,99726.92
2019-04-20T08:57:04.953Z,99724.39
2019-04-20T08:59:43.622Z,99718.31
2019-04-20T09:02:18.843Z,99717.97
2019-04-20T09:04:59.141Z,99722.97
2019-04-20T09:07:33.361Z,99718.26
2019-04-20T09:10:30.792Z,99707.62
2019-04-20T09:12:54.669Z,99712.67
2019-04-20T09:15:21.131Z,99709.49
2019-04-20T09:18:09.290Z,99705.08
2019-04-20T09:20:48.700Z,99702.59
2019-04-20T09:23:30.018Z,99702.61
2019-04-20T09:26:10.458Z,99698.70
2019-04-20T09:28:54.470Z,99692.37
2019-04-20T09:31:35.462Z,99689.58
2019-04-20T09:34:34.038Z,99685.31
2019-04-20T09:37:26.056Z,99683.05
2019-04-20T09:40:21.859Z,99681.03
2019-04-20T09:42:51.610Z,99673.15
2019-04-20T09:45:37.073Z,99665.27
2019-04-20T09:48:12.550Z,99674.23
2019-04-20T09:50:59.484Z,99658.75
2019-04-20T09:53:32.579Z,99655.99
2019-04-20T09:56:08.776Z,99656.41
2019-04-20T09:58:45.378Z,99648.25
2019-04-20T10:01:13.567Z,99649.47
2019-04-20T10:03:36.639Z,99644.27
2019-04-20T10:06:10.003Z,99639.27
2019-04-20T10:08:49.216Z,99633.73
2019-04-20T10:11:19.185Z,99639.73
2019-04-20T10:13:54.270Z,99637.40
2019-04-20T10:16:27.595Z,99639.59
2019-04-20T10:19:00.868Z,99634.91
2019-04-20T10:21:35.980Z,99636.45
2019-04-20T10:24:10.644Z,99624.48
2019-04-20T10:26:44.943Z,99627.46
2019-04-20T10:29:19.621Z,99619.42
2019-04-20T10:31:58.631Z,99618.45
2019-04-20T10:34:30.587Z,99621.54
2019-04-20T10:37:23.873Z,99623.66
2019-04-20T10:39:58.527Z,99614.20
2019-04-20T10:42:32.276Z,99611.73
2019-04-20T10:45:07.038Z,99608.88
2019-04-20T10:47:41.082Z,99601.41
2019-04-20T10:50:15.017Z,99601.35
2019-04-20T10:52:49.892Z,99598.68
2019-04-20T10:55:25.053Z,99601.25
2019-04-20T10:57:59.733Z,99596.95
2019-04-20T11:00:50.092Z,99596.56
2019-04-20T11:03:24.743Z,99594.25
2019-04-20T11:05:58.539Z,99587.31
2019-04-20T11:08:32.904Z,99594.25
2019-04-20T11:11:13.001Z,99589.38
2019-04-20T11:13:41.470Z,99581.42
2019-04-20T11:16:14.824Z,99593.56
2019-04-20T11:18:49.395Z,99577.92
2019-04-20T11:21:24.624Z,99569.48
2019-04-20T11:24:00.322Z,99572.08
2019-04-20T11:26:37.980Z,99566.75
2019-04-20T11:29:10.549Z,99567.06
2019-04-20T11:31:49.467Z,99565.77
2019-04-20T11:34:25.792Z,99554.51
2019-04-20T11:36:57.256Z,99562.16
2019-04-20T11:39:30.874Z,99557.19
2019-04-20T11:42:05.655Z,99556.66
2019-04-20T11:44:39.187Z,99551.63
2019-04-20T11:47:14.733Z,99548.48
2019-04-20T11:49:49.376Z,99542.80
2019-04-20T11:52:24.953Z,99546.16
2019-04-20T11:54:58.577Z,99533.98
2019-04-20T11:57:33.430Z,99537.63
2019-04-20T12:00:08.740Z,99536.30
2019-04-20T12:03:09.814Z,99531.05
2019-04-20T12:05:43.015Z,99526.72
2019-04-20T12:08:13.176Z,99528.66
2019-04-20T12:10:50.303Z,99517.22
2019-04-20T12:13:24.682Z,99522.04
2019-04-20T12:15:59.463Z,99516.91
2019-04-20T12:18:33.725Z,99517.47
2019-04-20T12:21:08.562Z,99515.92
2019-04-20T12:23:42.385Z,99510.77
2019-04-20T12:26:16.560Z,99507.45
2019-04-20T12:28:50.125Z,99496.33
2019-04-20T12:31:27.164Z,99484.80
2019-04-20T12:33:58.641Z,99485.80
2019-04-20T12:36:37.247Z,99487.95
2019-04-20T12:39:11.113Z,99479.86
2019-04-20T12:41:52.876Z,99475.91
2019-04-20T12:44:19.990Z,99478.64
2019-04-20T12:46:54.249Z,99470.02
2019-04-20T12:49:29.490Z,99463.34
2019-04-20T12:52:06.425Z,99459.06
2019-04-20T12:54:41.147Z,99456.37
2019-04-20T12:57:16.564Z,99447.98
2019-04-20T12:59:52.330Z,99453.84
2019-04-20T13:02:29.293Z,99443.72
2019-04-20T13:05:03.692Z,99445.70
2019-04-20T13:07:42.054Z,99441.73
2019-04-20T13:10:13.685Z,99439.69
2019-04-20T13:13:00.836Z,99435.98
2019-04-20T13:15:54.340Z,99438.39
2019-04-20T13:18:47.611Z,99430.25
2019-04-20T13:21:22.977Z,99422.97
2019-04-20T13:23:56.554Z,99418.14
2019-04-20T13:26:30.973Z,99419.27
2019-04-20T13:29:06.463Z,99422.47
2019-04-20T13:31:41.761Z,99418.05
2019-04-20T13:34:17.320Z,99403.91
2019-04-20T13:36:52.465Z,99403.84
2019-04-20T13:39:26.847Z,99391.53
2019-04-20T13:42:10.302Z,99395.98
2019-04-20T13:44:36.933Z,99384.05
2019-04-20T13:47:10.439Z,99380.22
2019-04-20T13:49:45.183Z,99381.82
2019-04-20T13:52:22.586Z,99383.05
2019-04-20T13:54:58.028Z,99373.54
2019-04-20T13:57:40.215Z,99363.97
2019-04-20T14:00:38.709Z,99360.66
2019-04-20T14:03:16.596Z,99348.69
2019-04-20T14:05:50.823Z,99354.42
2019-04-20T14:08:35.662Z,99342.62
2019-04-20T14:11:11.465Z,99341.00
2019-04-20T14:13:53.620Z,99330.92
2019-04-20T14:16:23.188Z,99327.42
2019-04-20T14:18:58.783Z,99324.38
2019-04-20T14:21:32.212Z,99331.17
2019-04-20T14:24:06.686Z,99333.55
2019-04-20T14:26:43.741Z,99343.92
2019-04-20T14:29:17.395Z,99341.68
2019-04-20T14:31:52.133Z,99334.61
2019-04-20T14:34:29.016Z,99335.02
2019-04-20T14:37:02.668Z,99327.62
2019-04-20T14:39:38.828Z,99320.70
2019-04-20T14:42:23.305Z,99318.30
2019-04-20T14:44:50.097Z,99309.80
2019-04-20T14:47:27.876Z,99317.36
2019-04-20T14:50:03.095Z,99310.45
2019-04-20T14:52:37.703Z,99310.93
2019-04-20T14:55:15.512Z,99308.48
2019-04-20T14:57:49.553Z,99304.11
2019-04-20T15:00:56.536Z,99298.78
2019-04-20T15:03:38.313Z,99300.73
2019-04-20T15:06:13.601Z,99302.52
2019-04-20T15:08:50.441Z,99305.56
2019-04-20T15:11:24.973Z,99296.94
2019-04-20T15:14:02.961Z,99307.81
2019-04-20T15:16:38.353Z,99307.11
2019-04-20T15:19:36.031Z,99305.95
2019-04-20T15:22:33.770Z,99302.50
2019-04-20T15:25:09.469Z,99309.45
2019-04-20T15:27:46.317Z,99301.18
2019-04-20T15:30:20.519Z,99303.76
2019-04-20T15:32:56.840Z,99299.98
2019-04-20T15:35:40.104Z,99291.89
2019-04-20T15:38:17.494Z,99292.06
2019-04-20T15:40:53.286Z,99286.91
2019-04-20T15:43:31.077Z,99282.69
2019-04-20T15:46:07.577Z,99279.20
2019-04-20T15:48:42.125Z,99282.56
2019-04-20T15:51:17.153Z,99275.86
2019-04-20T15:53:55.629Z,99280.41
2019-04-20T15:56:30.569Z,99271.39
2019-04-20T15:59:04.454Z,99273.91
2019-04-20T16:02:03.110Z,99261.75
2019-04-20T16:04:56.495Z,99270.55
2019-04-20T16:07:40.694Z,99267.45
2019-04-20T16:10:13.005Z,99270.44
2019-04-20T16:12:52.706Z,99268.72
2019-04-20T16:15:25.348Z,99274.49
2019-04-20T16:18:00.817Z,99267.73
2019-04-20T16:20:47.293Z,99268.58
2019-04-20T16:23:14.409Z,99262.28
2019-04-20T16:26:08.676Z,99259.02
2019-04-20T16:28:51.759Z,99251.06
2019-04-20T16:31:29.167Z,99253.63
2019-04-20T16:34:07.743Z,99250.41
2019-04-20T16:36:42.626Z,99256.22
2019-04-20T16:39:16.522Z,99252.41
2019-04-20T16:41:51.166Z,99260.63
2019-04-20T16:44:35.481Z,99252.94
2019-04-20T16:47:12.512Z,99260.41
2019-04-20T16:49:50.864Z,99259.41
2019-04-20T16:52:38.885Z,99261.44
2019-04-20T16:55:14.633Z,99259.47
2019-04-20T16:57:53.661Z,99261.86
2019-04-20T17:00:31.597Z,99264.92
2019-04-20T17:03:13.174Z,99265.02
2019-04-20T17:05:51.301Z,99263.27
2019-04-20T17:08:27.012Z,99265.83
2019-04-20T17:11:03.479Z,99260.69
2019-04-20T17:13:53.751Z,99266.20
2019-04-20T17:16:37.674Z,99270.39
2019-04-20T17:19:15.594Z,99271.88
2019-04-20T17:22:03.553Z,99277.03
2019-04-20T17:24:39.996Z,99274.33
2019-04-20T17:27:51.440Z,99276.33
2019-04-20T17:30:49.045Z,99279.11
2019-04-20T17:33:55.121Z,99277.45
2019-04-20T17:36:44.312Z,99283.55
2019-04-20T17:39:45.518Z,99279.35
2019-04-20T17:42:46.201Z,99278.17
2019-04-20T17:45:28.615Z,99271.64
2019-04-20T17:48:09.726Z,99278.19
2019-04-20T17:50:54.594Z,99277.31
2019-04-20T17:53:32.264Z,99276.95
2019-04-20T17:55:54.897Z,99278.06
2019-04-20T17:58:35.938Z,99281.95
2019-04-20T18:01:41.302Z,99279.94
2019-04-20T18:04:57.444Z,99276.57
2019-04-20T18:07:04.327Z,99286.10
2019-04-20T18:09:56.484Z,99290.02
2019-04-20T18:12:31.098Z,99281.13
2019-04-20T18:15:17.016Z,99283.17
2019-04-20T18:18:15.716Z,99288.18
2019-04-20T18:20:54.929Z,99290.92
2019-04-20T18:23:44.756Z,99287.35
2019-04-20T18:26:48.163Z,99293.50
2019-04-20T18:29:32.559Z,99295.23
2019-04-20T18:32:07.695Z,99305.89
2019-04-20T18:35:20.643Z,99316.03
2019-04-20T18:38:09.758Z,99313.75
2019-04-20T18:41:02.676Z,99309.48
2019-04-20T18:44:20.197Z,99313.80
2019-04-20T18:47:23.724Z,99313.20
2019-04-20T18:49:58.537Z,99312.63
2019-04-20T18:52:39.939Z,99308.17
2019-04-20T18:55:33.244Z,99322.36
2019-04-20T18:58:13.585Z,99318.89
2019-04-20T19:01:15.003Z,99318.75
2019-04-20T19:04:07.799Z,99317.87
2019-04-20T19:07:06.220Z,99325.44
2019-04-20T19:09:53.289Z,99331.61
2019-04-20T19:12:50.313Z,99332.78
2019-04-20T19:16:15.219Z,99328.48
2019-04-20T19:19:30.245Z,99329.66
2019-04-20T19:22:06.348Z,99332.23
2019-04-20T19:24:51.770Z,99338.06
2019-04-20T19:27:35.872Z,99333.41
2019-04-20T19:30:21.426Z,99342.69
2019-04-20T19:33:18.986Z,99341.84
2019-04-20T19:35:50.121Z,99352.55
2019-04-20T19:38:22.638Z,99354.55
2019-04-20T19:41:18.990Z,99351.42
2019-04-20T19:44:19.219Z,99354.39
2019-04-20T19:47:28.448Z,99353.84
2019-04-20T19:50:36.735Z,99356.19
2019-04-20T19:53:11.221Z,99355.64
2019-04-20T19:55:47.912Z,99354.02
2019-04-20T19:58:52.953Z,99342.90
2019-04-20T20:01:29.401Z,99340.37
2019-04-20T20:04:19.698Z,99342.62
2019-04-20T20:07:28.689Z,99347.61
2019-04-20T20:10:10.594Z,99351.34
2019-04-20T20:13:02.591Z,99350.42
2019-04-20T20:16:00.835Z,99348.65
2019-04-20T20:18:53.285Z,99348.56
2019-04-20T20:21:51.484Z,99344.61
2019-04-20T20:24:27.191Z,99342.95
2019-04-20T20:27:22.879Z,99342.72
2019-04-20T20:30:20.474Z,99337.83
2019-04-20T20:33:11.610Z,99340.23
2019-04-20T20:35:48.091Z,99345.42
2019-04-20T20:38:34.014Z,99347.48
2019-04-20T20:41:10.340Z,99348.25
2019-04-20T20:44:03.114Z,99358.59
2019-04-20T20:46:34.828Z,99352.63
2019-04-20T20:49:21.617Z,99356.27
2019-04-20T20:52:05.903Z,99360.37
2019-04-20T20:54:44.877Z,99364.20
2019-04-20T20:57:21.910Z,99366.13
2019-04-20T20:59:57.461Z,99365.55
2019-04-20T21:02:39.000Z,99367.94
2019-04-20T21:05:05.874Z,99373.58
2019-04-20T21:07:42.649Z,99374.65
2019-04-20T21:10:25.884Z,99378.13
2019-04-20T21:13:01.363Z,99374.41
2019-04-20T21:15:33.429Z,99367.60
2019-04-20T21:18:34.892Z,99371.55
2019-04-20T21:21:01.066Z,99371.56
2019-04-20T21:23:35.306Z,99370.83
2019-04-20T21:26:17.912Z,99368.57
2019-04-20T21:28:46.058Z,99367.14
2019-04-20T21:31:24.228Z,99364.26
2019-04-20T21:33:55.221Z,99362.20
2019-04-20T21:36:31.341Z,99363.80
2019-04-20T21:39:09.691Z,99359.09
2019-04-20T21:41:49.668Z,99362.08
2019-04-20T21:44:21.525Z,99363.75
2019-04-20T21:46:54.602Z,99359.22
2019-04-20T21:49:42.245Z,99366.02
2019-04-20T21:52:18.376Z,99365.55
2019-04-20T21:54:45.716Z,99365.78
2019-04-20T21:57:20.010Z,99365.88
2019-04-20T22:00:08.491Z,99365.16
2019-04-20T22:02:44.678Z,99364.05
2019-04-20T22:05:13.577Z,99356.30
2019-04-20T22:07:50.348Z,99356.98
2019-04-20T22:10:29.523Z,99365.92
2019-04-20T22:13:02.707Z,99358.71
2019-04-20T22:15:45.973Z,99353.45
2019-04-20T22:18:16.501Z,99357.64
2019-04-20T22:21:04.536Z,99356.53
2019-04-20T22:23:43.689Z,99361.14
2019-04-20T22:26:20.261Z,99367.30
2019-04-20T22:28:44.627Z,99371.72
2019-04-20T22:31:20.245Z,99367.25
2019-04-20T22:33:56.256Z,99362.09
2019-04-20T22:36:34.365Z,99364.11
2019-04-20T22:39:18.724Z,99354.53
2019-04-20T22:42:02.013Z,99360.07
2019-04-20T22:44:34.215Z,99362.38
2019-04-20T22:47:14.992Z,99356.34
2019-04-20T22:50:00.062Z,99359.33
2019-04-20T22:52:36.225Z,99365.66
2019-04-20T22:55:19.855Z,99369.98
2019-04-20T22:57:46.893Z,99366.97
2019-04-20T23:00:14.538Z,99370.21
2019-04-20T23:02:46.942Z,99367.85
2019-04-20T23:05:22.779Z,99374.33
2019-04-20T23:07:57.058Z,99374.55
2019-04-20T23:10:39.107Z,99371.41
2019-04-20T23:13:11.625Z,99366.48
2019-04-20T23:15:53.082Z,99369.64
2019-04-20T23:18:24.552Z,99369.26
2019-04-20T23:21:03.715Z,99364.79
2019-04-20T23:23:37.401Z,99358.57
2019-04-20T23:26:12.560Z,99363.56
2019-04-20T23:28:53.602Z,99360.43
2019-04-20T23:31:26.785Z,99358.02
2019-04-20T23:34:09.160Z,99362.27
2019-04-20T23:36:40.639Z,99359.00
2019-04-20T23:39:13.057Z,99363.31
2019-04-20T23:41:52.517Z,99354.83
2019-04-20T23:44:35.750Z,99350.91
2019-04-20T23:47:25.497Z,99352.64
2019-04-20T23:50:20.832Z,99348.03
2019-04-20T23:52:59.690Z,99345.74
2019-04-20T23:55:16.989Z,99343.88
2019-04-20T23:57:54.713Z,99344.05
